createdAt,value
2022-11-20T00:00:27.268Z,33.00
2022-11-20T00:03:13.390Z,35.90
2022-11-20T00:06:08.764Z,33.80
2022-11-20T00:09:00.866Z,35.25
2022-11-20T00:11:46.434Z,35.80
2022-11-20T00:14:32.036Z,37.00
2022-11-20T00:17:17.834Z,33.25
2022-11-20T00:20:04.318Z,33.58
2022-11-20T00:22:51.156Z,33.20
2022-11-20T00:25:37.062Z,33.63
2022-11-20T00:28:23.121Z,33.88
2022-11-20T00:31:12.258Z,35.97
2022-11-20T00:33:58.197Z,37.20
2022-11-20T00:36:44.497Z,34.88
2022-11-20T00:39:30.535Z,33.53
2022-11-20T00:42:16.024Z,35.45
2022-11-20T00:45:01.812Z,34.17
2022-11-20T00:47:47.528Z,37.25
2022-11-20T00:50:33.223Z,36.05
2022-11-20T00:53:19.038Z,33.50
2022-11-20T00:56:07.836Z,34.15
2022-11-20T00:58:53.268Z,36.67
2022-11-20T01:01:39.265Z,35.13
2022-11-20T01:04:25.342Z,36.83
2022-11-20T01:07:11.255Z,37.13
2022-11-20T01:09:57.070Z,36.40
2022-11-20T01:12:43.247Z,38.75
2022-11-20T01:15:29.026Z,34.92
2022-11-20T01:18:14.734Z,36.53
2022-11-20T01:21:10.389Z,33.40
2022-11-20T01:23:57.156Z,35.00
2022-11-20T01:26:44.428Z,35.63
2022-11-20T01:29:30.014Z,38.63
2022-11-20T01:32:15.371Z,35.63
2022-11-20T01:35:02.212Z,33.83
2022-11-20T01:37:48.774Z,31.40
2022-11-20T01:40:34.389Z,34.88
2022-11-20T01:43:21.464Z,36.70
2022-11-20T01:46:19.448Z,34.45
2022-11-20T01:49:30.093Z,37.60
2022-11-20T01:52:25.663Z,37.70
2022-11-20T01:55:16.601Z,32.97
2022-11-20T01:58:03.912Z,35.78
2022-11-20T02:00:50.595Z,34.65
2022-11-20T02:03:37.177Z,35.78
2022-11-20T02:06:30.546Z,34.75
2022-11-20T02:09:17.560Z,33.83
2022-11-20T02:12:04.710Z,37.03
2022-11-20T02:14:50.175Z,33.00
2022-11-20T02:17:35.818Z,33.90
2022-11-20T02:20:21.876Z,38.00
2022-11-20T02:23:15.343Z,32.67
2022-11-20T02:26:05.102Z,32.88
2022-11-20T02:28:51.559Z,33.33
2022-11-20T02:31:43.569Z,35.53
2022-11-20T02:34:30.002Z,35.53
2022-11-20T02:37:16.637Z,34.70
2022-11-20T02:40:02.294Z,60.78
2022-11-20T02:42:48.613Z,97.40
2022-11-20T02:45:34.951Z,76.07
2022-11-20T02:48:20.865Z,62.05
2022-11-20T02:51:06.541Z,58.85
2022-11-20T02:53:52.852Z,61.00
2022-11-20T02:56:39.835Z,55.88
2022-11-20T02:59:25.610Z,51.38
2022-11-20T03:02:11.302Z,59.28
2022-11-20T03:04:56.865Z,39.05
2022-11-20T03:07:42.374Z,71.95
2022-11-20T03:10:28.260Z,51.08
2022-11-20T03:13:13.682Z,61.70
2022-11-20T03:15:59.716Z,52.05
2022-11-20T03:18:45.711Z,28.85
2022-11-20T03:21:33.600Z,52.55
2022-11-20T03:24:20.576Z,30.58
2022-11-20T03:27:07.138Z,44.40
2022-11-20T03:29:52.958Z,58.92
2022-11-20T03:32:38.321Z,55.83
2022-11-20T03:35:24.224Z,39.37
2022-11-20T03:38:10.472Z,58.75
2022-11-20T03:41:01.170Z,37.15
2022-11-20T03:43:55.170Z,37.55
2022-11-20T03:46:41.667Z,30.63
2022-11-20T03:49:27.420Z,42.25
2022-11-20T03:52:13.455Z,39.15
2022-11-20T03:54:58.887Z,31.48
2022-11-20T03:57:44.948Z,44.55
2022-11-20T04:00:30.954Z,30.60
2022-11-20T04:03:16.770Z,26.83
2022-11-20T04:06:04.777Z,31.38
2022-11-20T04:08:53.965Z,50.78
2022-11-20T04:11:41.284Z,27.83
2022-11-20T04:14:26.896Z,54.60
2022-11-20T04:17:12.791Z,52.05
2022-11-20T04:19:58.467Z,53.58
2022-11-20T04:22:43.963Z,35.47
2022-11-20T04:25:29.439Z,43.33
2022-11-20T04:28:15.712Z,28.23
2022-11-20T04:31:13.883Z,33.78
2022-11-20T04:34:05.431Z,29.48
2022-11-20T04:36:51.399Z,22.27
2022-11-20T04:39:37.518Z,32.72
2022-11-20T04:42:29.742Z,23.92
2022-11-20T04:45:15.450Z,20.35
2022-11-20T04:48:01.318Z,22.90
2022-11-20T04:50:47.089Z,35.05
2022-11-20T04:53:32.744Z,54.93
2022-11-20T04:56:18.931Z,34.37
2022-11-20T04:59:04.578Z,20.67
2022-11-20T05:01:50.739Z,26.63
2022-11-20T05:04:37.032Z,72.43
2022-11-20T05:07:22.581Z,43.55
2022-11-20T05:10:09.667Z,76.60
2022-11-20T05:12:55.400Z,49.83
2022-11-20T05:15:41.382Z,80.75
2022-11-20T05:18:27.095Z,67.57
2022-11-20T05:21:13.344Z,68.50
2022-11-20T05:23:59.663Z,91.18
2022-11-20T05:26:45.532Z,51.80
2022-11-20T05:29:31.227Z,35.60
2022-11-20T05:32:17.229Z,43.67
2022-11-20T05:35:03.923Z,35.67
2022-11-20T05:37:49.503Z,81.28
2022-11-20T05:40:35.034Z,70.30
2022-11-20T05:43:21.119Z,61.72
2022-11-20T05:46:09.331Z,56.65
2022-11-20T05:48:55.484Z,26.40
2022-11-20T05:51:41.327Z,28.65
2022-11-20T05:54:27.194Z,29.30
2022-11-20T05:57:12.638Z,28.05
2022-11-20T05:59:58.462Z,16.85
2022-11-20T06:02:44.477Z,31.95
2022-11-20T06:05:30.299Z,24.95
2022-11-20T06:08:16.552Z,31.67
2022-11-20T06:11:07.306Z,28.55
2022-11-20T06:13:53.073Z,38.70
2022-11-20T06:16:38.449Z,34.47
2022-11-20T06:19:24.558Z,42.83
2022-11-20T06:22:10.920Z,36.67
2022-11-20T06:24:56.657Z,34.15
2022-11-20T06:27:43.475Z,26.60
2022-11-20T06:30:29.571Z,29.67
2022-11-20T06:33:15.186Z,18.05
2022-11-20T06:36:07.268Z,18.40
2022-11-20T06:38:55.716Z,20.43
2022-11-20T06:41:41.802Z,20.30
2022-11-20T06:44:27.873Z,16.52
2022-11-20T06:47:14.095Z,22.08
2022-11-20T06:49:59.407Z,15.57
2022-11-20T06:52:45.250Z,18.17
2022-11-20T06:55:32.235Z,16.65
2022-11-20T06:58:18.945Z,16.85
2022-11-20T07:01:11.221Z,19.80
2022-11-20T07:03:57.085Z,15.70
2022-11-20T07:06:43.645Z,19.30
2022-11-20T07:09:29.364Z,20.02
2022-11-20T07:12:15.332Z,11.43
2022-11-20T07:15:01.169Z,18.38
2022-11-20T07:17:47.007Z,17.75
2022-11-20T07:20:33.274Z,32.10
2022-11-20T07:23:19.695Z,33.55
2022-11-20T07:26:10.438Z,20.30
2022-11-20T07:28:56.341Z,26.20
2022-11-20T07:31:41.932Z,15.15
2022-11-20T07:34:27.825Z,18.05
2022-11-20T07:37:15.334Z,24.10
2022-11-20T07:40:01.396Z,15.10
2022-11-20T07:42:51.356Z,22.60
2022-11-20T07:45:37.439Z,19.98
2022-11-20T07:48:24.262Z,13.18
2022-11-20T07:51:09.762Z,19.40
2022-11-20T07:53:55.230Z,17.83
2022-11-20T07:56:40.801Z,17.47
2022-11-20T07:59:26.470Z,15.68
2022-11-20T08:02:12.913Z,16.60
2022-11-20T08:04:58.660Z,15.35
2022-11-20T08:07:44.901Z,16.10
2022-11-20T08:10:30.689Z,15.38
2022-11-20T08:13:35.086Z,15.65
2022-11-20T08:16:21.699Z,16.88
2022-11-20T08:19:08.035Z,16.93
2022-11-20T08:21:53.480Z,16.10
2022-11-20T08:24:39.031Z,15.85
2022-11-20T08:27:25.482Z,14.30
2022-11-20T08:30:12.286Z,14.60
2022-11-20T08:33:03.383Z,11.98
2022-11-20T08:35:49.167Z,12.68
2022-11-20T08:38:35.431Z,11.93
2022-11-20T08:41:31.738Z,12.98
2022-11-20T08:44:17.843Z,14.10
2022-11-20T08:47:03.370Z,11.87
2022-11-20T08:49:49.035Z,13.60
2022-11-20T08:52:38.499Z,11.35
2022-11-20T08:55:25.573Z,11.82
2022-11-20T08:58:12.023Z,10.98
2022-11-20T09:00:58.060Z,12.18
2022-11-20T09:03:44.658Z,10.77
2022-11-20T09:06:30.521Z,11.00
2022-11-20T09:09:16.383Z,11.65
2022-11-20T09:12:02.188Z,11.75
2022-11-20T09:14:53.731Z,10.45
2022-11-20T09:17:40.810Z,11.07
2022-11-20T09:20:27.698Z,10.57
2022-11-20T09:23:13.864Z,8.85
2022-11-20T09:26:02.302Z,8.73
2022-11-20T09:28:48.198Z,8.85
2022-11-20T09:31:34.227Z,10.15
2022-11-20T09:34:20.152Z,8.50
2022-11-20T09:37:07.604Z,11.07
2022-11-20T09:39:53.888Z,9.77
2022-11-20T09:42:53.582Z,6.90
2022-11-20T09:45:45.634Z,6.95
2022-11-20T09:48:37.750Z,6.53
2022-11-20T09:51:49.818Z,6.70
2022-11-20T09:54:39.362Z,6.90
2022-11-20T09:57:35.647Z,6.85
2022-11-20T10:00:22.264Z,7.72
2022-11-20T10:03:22.633Z,9.55
2022-11-20T10:06:16.478Z,7.95
2022-11-20T10:09:14.802Z,8.32
2022-11-20T10:12:23.765Z,8.05
2022-11-20T10:15:22.275Z,7.78
2022-11-20T10:18:50.986Z,7.32
2022-11-20T10:22:03.158Z,9.13
2022-11-20T10:25:30.438Z,8.73
2022-11-20T10:28:28.635Z,8.65
2022-11-20T10:31:41.947Z,8.55
2022-11-20T10:34:47.855Z,12.07
2022-11-20T10:37:36.636Z,11.15
2022-11-20T10:40:32.353Z,11.20
2022-11-20T10:43:33.272Z,10.38
2022-11-20T10:46:25.759Z,10.98
2022-11-20T10:49:21.373Z,11.52
2022-11-20T10:52:25.067Z,11.40
2022-11-20T10:55:31.936Z,12.20
2022-11-20T10:58:47.355Z,10.55
2022-11-20T11:01:42.907Z,9.38
2022-11-20T11:04:41.817Z,10.65
2022-11-20T11:07:40.681Z,9.15
2022-11-20T11:10:34.407Z,8.70
2022-11-20T11:13:28.610Z,8.95
2022-11-20T11:16:25.276Z,9.65
2022-11-20T11:19:15.765Z,9.73
2022-11-20T11:22:01.880Z,8.27
2022-11-20T11:24:54.899Z,9.52
2022-11-20T11:27:52.696Z,9.05
2022-11-20T11:30:44.911Z,8.27
2022-11-20T11:33:34.602Z,9.23
2022-11-20T11:36:25.696Z,8.65
2022-11-20T11:39:21.126Z,9.60
2022-11-20T11:42:09.486Z,9.45
2022-11-20T11:45:06.906Z,9.35
2022-11-20T11:47:55.224Z,9.13
2022-11-20T11:50:50.335Z,10.85
2022-11-20T11:53:42.458Z,10.57
2022-11-20T11:56:29.672Z,9.98
2022-11-20T11:59:39.271Z,9.73
2022-11-20T12:02:43.475Z,10.95
2022-11-20T12:05:37.086Z,10.80
2022-11-20T12:08:28.714Z,11.60
2022-11-20T12:11:18.958Z,10.00
2022-11-20T12:14:25.036Z,10.90
2022-11-20T12:17:15.193Z,10.55
2022-11-20T12:20:00.846Z,10.52
2022-11-20T12:23:17.582Z,9.77
2022-11-20T12:26:15.011Z,10.68
2022-11-20T12:29:22.262Z,10.23
2022-11-20T12:32:17.015Z,10.88
2022-11-20T12:35:40.396Z,9.55
2022-11-20T12:38:44.541Z,10.30
2022-11-20T12:42:14.148Z,10.23
2022-11-20T12:45:25.227Z,8.60
2022-11-20T12:48:29.893Z,8.38
2022-11-20T12:51:30.509Z,8.60
2022-11-20T12:54:31.053Z,9.52
2022-11-20T12:57:36.882Z,9.30
2022-11-20T13:00:24.891Z,8.80
2022-11-20T13:03:29.310Z,8.80
2022-11-20T13:06:19.592Z,10.30
2022-11-20T13:09:11.993Z,9.15
2022-11-20T13:12:23.893Z,8.25
2022-11-20T13:15:49.130Z,9.63
2022-11-20T13:18:40.444Z,8.10
2022-11-20T13:21:50.208Z,9.00
2022-11-20T13:24:36.350Z,9.07
2022-11-20T13:27:24.178Z,7.97
2022-11-20T13:30:20.111Z,8.05
2022-11-20T13:33:24.097Z,8.02
2022-11-20T13:36:26.989Z,7.55
2022-11-20T13:39:13.221Z,8.00
2022-11-20T13:42:04.931Z,7.57
2022-11-20T13:45:03.603Z,8.25
2022-11-20T13:47:51.961Z,9.10
2022-11-20T13:50:37.798Z,9.32
2022-11-20T13:53:26.367Z,8.00
2022-11-20T13:56:26.524Z,11.52
2022-11-20T13:59:27.462Z,7.80
2022-11-20T14:02:17.498Z,6.47
2022-11-20T14:05:05.250Z,7.77
2022-11-20T14:07:52.885Z,7.38
2022-11-20T14:10:40.450Z,8.13
2022-11-20T14:13:26.295Z,8.85
2022-11-20T14:16:11.747Z,7.85
2022-11-20T14:18:58.887Z,6.85
2022-11-20T14:21:45.201Z,7.75
2022-11-20T14:24:30.879Z,6.55
2022-11-20T14:27:21.873Z,6.57
2022-11-20T14:30:16.822Z,9.15
2022-11-20T14:33:04.759Z,7.85
2022-11-20T14:35:56.574Z,6.45
2022-11-20T14:38:43.499Z,5.85
2022-11-20T14:41:32.413Z,7.50
2022-11-20T14:44:17.966Z,6.00
2022-11-20T14:47:05.782Z,6.57
2022-11-20T14:49:53.340Z,5.20
2022-11-20T14:52:39.550Z,13.23
2022-11-20T14:55:35.112Z,6.25
2022-11-20T14:58:23.644Z,9.35
2022-11-20T15:01:15.176Z,6.40
2022-11-20T15:04:13.587Z,8.00
2022-11-20T15:07:00.684Z,8.35
2022-11-20T15:09:46.399Z,8.23
2022-11-20T15:12:39.713Z,8.82
2022-11-20T15:15:49.226Z,7.83
2022-11-20T15:18:40.048Z,8.00
2022-11-20T15:21:25.602Z,8.15
2022-11-20T15:24:12.151Z,8.00
2022-11-20T15:26:57.932Z,9.95
2022-11-20T15:29:43.886Z,9.07
2022-11-20T15:32:30.107Z,10.00
2022-11-20T15:35:17.149Z,7.50
2022-11-20T15:38:03.397Z,10.90
2022-11-20T15:40:49.740Z,8.65
2022-11-20T15:43:35.352Z,8.10
2022-11-20T15:46:28.197Z,8.33
2022-11-20T15:49:16.195Z,7.50
2022-11-20T15:52:02.115Z,7.47
2022-11-20T15:54:48.612Z,9.73
2022-11-20T15:57:34.541Z,7.53
2022-11-20T16:00:23.556Z,8.77
2022-11-20T16:03:17.621Z,6.97
2022-11-20T16:06:03.702Z,10.17
2022-11-20T16:08:49.822Z,7.63
2022-11-20T16:11:37.628Z,8.07
2022-11-20T16:14:42.257Z,7.03
2022-11-20T16:17:43.322Z,7.05
2022-11-20T16:20:28.727Z,7.40
2022-11-20T16:23:16.469Z,8.82
2022-11-20T16:26:14.766Z,8.10
2022-11-20T16:29:01.230Z,9.65
2022-11-20T16:31:47.290Z,10.90
2022-11-20T16:34:33.690Z,7.30
2022-11-20T16:37:19.412Z,7.20
2022-11-20T16:40:05.751Z,7.38
2022-11-20T16:42:52.194Z,8.48
2022-11-20T16:45:43.000Z,8.98
2022-11-20T16:48:29.249Z,9.73
2022-11-20T16:51:15.115Z,7.47
2022-11-20T16:54:03.886Z,11.18
2022-11-20T16:56:51.933Z,8.52
2022-11-20T16:59:38.009Z,9.70
2022-11-20T17:02:23.840Z,10.13
2022-11-20T17:05:09.669Z,12.77
2022-11-20T17:07:55.901Z,9.20
2022-11-20T17:10:42.563Z,8.03
2022-11-20T17:13:30.658Z,9.98
2022-11-20T17:16:19.318Z,9.07
2022-11-20T17:19:05.406Z,9.23
2022-11-20T17:21:51.028Z,9.15
2022-11-20T17:24:36.959Z,9.73
2022-11-20T17:27:23.688Z,10.13
2022-11-20T17:30:10.637Z,8.67
2022-11-20T17:32:56.418Z,10.13
2022-11-20T17:35:42.103Z,10.07
2022-11-20T17:38:28.802Z,9.52
2022-11-20T17:41:19.769Z,9.15
2022-11-20T17:44:05.899Z,8.85
2022-11-20T17:46:51.868Z,8.95
2022-11-20T17:49:37.490Z,10.73
2022-11-20T17:52:23.762Z,10.10
2022-11-20T17:55:09.953Z,8.80
2022-11-20T17:58:02.784Z,10.15
2022-11-20T18:00:48.721Z,10.27
2022-11-20T18:03:34.833Z,12.32
2022-11-20T18:06:23.387Z,74.05
2022-11-20T18:09:09.819Z,11.73
2022-11-20T18:11:56.099Z,11.20
2022-11-20T18:14:43.536Z,9.35
2022-11-20T18:17:29.543Z,10.68
2022-11-20T18:20:35.146Z,9.77
2022-11-20T18:23:21.717Z,10.10
2022-11-20T18:26:07.463Z,10.77
2022-11-20T18:28:54.353Z,9.77
2022-11-20T18:31:40.767Z,9.25
2022-11-20T18:34:27.677Z,8.32
2022-11-20T18:37:15.371Z,8.77
2022-11-20T18:40:01.325Z,10.00
2022-11-20T18:43:06.148Z,8.93
2022-11-20T18:45:52.567Z,9.55
2022-11-20T18:48:38.823Z,10.02
2022-11-20T18:51:24.328Z,9.48
2022-11-20T18:54:11.797Z,9.52
2022-11-20T18:56:57.901Z,8.88
2022-11-20T18:59:44.476Z,9.18
2022-11-20T19:02:30.603Z,9.47
2022-11-20T19:05:16.521Z,9.97
2022-11-20T19:08:02.956Z,9.65
2022-11-20T19:10:48.893Z,10.60
2022-11-20T19:13:35.509Z,9.77
2022-11-20T19:16:25.002Z,9.95
2022-11-20T19:19:11.935Z,9.80
2022-11-20T19:21:58.568Z,9.65
2022-11-20T19:24:45.908Z,10.18
2022-11-20T19:27:32.002Z,16.30
2022-11-20T19:30:17.952Z,12.02
2022-11-20T19:33:04.500Z,10.20
2022-11-20T19:35:51.034Z,11.20
2022-11-20T19:38:37.955Z,11.35
2022-11-20T19:41:29.276Z,12.88
2022-11-20T19:44:18.165Z,11.93
2022-11-20T19:47:08.938Z,12.32
2022-11-20T19:49:57.944Z,13.13
2022-11-20T19:52:43.808Z,12.23
2022-11-20T19:55:29.858Z,11.30
2022-11-20T19:58:16.023Z,11.60
2022-11-20T20:01:15.770Z,10.77
2022-11-20T20:04:02.996Z,10.53
2022-11-20T20:06:48.909Z,11.90
2022-11-20T20:09:34.972Z,10.13
2022-11-20T20:12:21.451Z,11.55
2022-11-20T20:15:08.568Z,11.98
2022-11-20T20:17:54.543Z,11.38
2022-11-20T20:20:40.890Z,10.75
2022-11-20T20:23:26.939Z,12.90
2022-11-20T20:26:12.769Z,15.13
2022-11-20T20:29:00.841Z,11.25
2022-11-20T20:31:46.884Z,10.82
2022-11-20T20:34:33.540Z,15.07
2022-11-20T20:37:19.575Z,17.58
2022-11-20T20:40:08.780Z,15.98
2022-11-20T20:42:57.409Z,17.73
2022-11-20T20:45:48.240Z,19.65
2022-11-20T20:48:34.360Z,16.63
2022-11-20T20:51:20.910Z,15.00
2022-11-20T20:54:06.930Z,14.30
2022-11-20T20:56:52.521Z,14.02
2022-11-20T20:59:38.882Z,13.48
2022-11-20T21:02:25.827Z,12.17
2022-11-20T21:05:12.370Z,15.75
2022-11-20T21:08:17.855Z,14.40
2022-11-20T21:11:11.487Z,12.13
2022-11-20T21:13:57.158Z,13.20
2022-11-20T21:16:44.062Z,11.93
2022-11-20T21:19:30.721Z,12.45
2022-11-20T21:22:16.465Z,12.38
2022-11-20T21:25:02.451Z,11.52
2022-11-20T21:27:48.243Z,12.50
2022-11-20T21:30:34.738Z,13.93
2022-11-20T21:33:21.052Z,13.75
2022-11-20T21:36:08.894Z,14.85
2022-11-20T21:38:56.362Z,15.77
2022-11-20T21:41:42.764Z,15.20
2022-11-20T21:44:41.450Z,16.35
2022-11-20T21:47:27.594Z,15.97
2022-11-20T21:50:14.119Z,16.45
2022-11-20T21:52:59.803Z,14.25
2022-11-20T21:55:53.750Z,13.73
2022-11-20T21:58:41.841Z,14.98
2022-11-20T22:01:30.242Z,14.07
2022-11-20T22:04:16.033Z,16.25
2022-11-20T22:07:01.997Z,15.95
2022-11-20T22:09:48.530Z,14.38
2022-11-20T22:12:33.871Z,14.87
2022-11-20T22:15:38.895Z,14.85
2022-11-20T22:18:25.839Z,13.82
2022-11-20T22:21:12.849Z,15.60
2022-11-20T22:23:59.205Z,14.13
2022-11-20T22:26:45.406Z,14.45
2022-11-20T22:29:30.972Z,14.82
2022-11-20T22:32:16.551Z,16.13
2022-11-20T22:35:02.085Z,13.38
2022-11-20T22:37:50.978Z,14.48
2022-11-20T22:40:36.680Z,12.45
2022-11-20T22:43:22.262Z,13.88
2022-11-20T22:46:13.815Z,13.73
2022-11-20T22:49:01.966Z,16.63
2022-11-20T22:51:47.498Z,14.05
2022-11-20T22:54:33.446Z,13.23
2022-11-20T22:57:19.586Z,13.00
2022-11-20T23:00:08.308Z,12.75
2022-11-20T23:02:53.968Z,13.70
2022-11-20T23:05:39.585Z,16.50
2022-11-20T23:08:25.798Z,15.40
2022-11-20T23:11:20.620Z,13.23
2022-11-20T23:14:13.081Z,13.70
2022-11-20T23:16:58.942Z,14.43
2022-11-20T23:19:44.830Z,13.25
2022-11-20T23:22:32.575Z,14.48
2022-11-20T23:25:18.481Z,14.27
2022-11-20T23:28:04.847Z,17.33
2022-11-20T23:30:50.861Z,14.13
2022-11-20T23:33:38.072Z,14.25
2022-11-20T23:36:24.003Z,13.90
2022-11-20T23:39:10.188Z,13.90
2022-11-20T23:41:55.902Z,13.40
2022-11-20T23:44:41.060Z,16.05
2022-11-20T23:47:27.497Z,14.82
2022-11-20T23:50:14.177Z,13.35
2022-11-20T23:53:00.917Z,13.20
2022-11-20T23:55:48.962Z,13.48
2022-11-20T23:58:38.857Z,13.80
